Terminal Aerodrome Forecast
Issued by NWS Sterling, VA

Home | Current Version | Previous Version | Text Only | Print | Product List | Glossary On
Versions: 1 2 3 4 5 6 7 8 9 10 11 12 13
000
FTUS41 KLWX 011124
TAFCHO
TAF
KCHO 011124Z 0112/0212 00000KT P6SM SCT080
     FM011700 VRB03KT P6SM BKN060
     FM020700 00000KT 3SM BR SCT070
     FM021000 VRB03KT 2SM BR BKN070=

USA.gov is the U.S. government's official web portal to all federal, state and local government web resources and services.